sensor_id;sensor_type;location;lat;lon;timestamp;P1;durP1;ratioP1;P2;durP2;ratioP2
69750;SDS011;57335;52.288;6.056;2022-12-18T00:01:03;57.00;;;16.23;;
69750;SDS011;57335;52.288;6.056;2022-12-18T00:03:33;62.03;;;17.10;;
69750;SDS011;57335;52.288;6.056;2022-12-18T00:06:00;56.92;;;16.88;;
69750;SDS011;57335;52.288;6.056;2022-12-18T00:10:54;59.15;;;18.45;;
69750;SDS011;57335;52.288;6.056;2022-12-18T00:13:25;55.42;;;16.27;;
69750;SDS011;57335;52.288;6.056;2022-12-18T00:15:53;57.72;;;18.55;;
69750;SDS011;57335;52.288;6.056;2022-12-18T00:18:21;51.22;;;15.70;;
69750;SDS011;57335;52.288;6.056;2022-12-18T00:20:48;61.22;;;17.73;;
69750;SDS011;57335;52.288;6.056;2022-12-18T00:23:14;68.38;;;17.67;;
69750;SDS011;57335;52.288;6.056;2022-12-18T00:25:41;66.05;;;20.50;;
69750;SDS011;57335;52.288;6.056;2022-12-18T00:28:07;62.72;;;18.10;;
69750;SDS011;57335;52.288;6.056;2022-12-18T00:30:33;67.80;;;19.92;;
69750;SDS011;57335;52.288;6.056;2022-12-18T00:33:00;70.20;;;18.95;;
69750;SDS011;57335;52.288;6.056;2022-12-18T00:35:26;54.40;;;16.60;;
69750;SDS011;57335;52.288;6.056;2022-12-18T00:37:52;70.57;;;19.50;;
69750;SDS011;57335;52.288;6.056;2022-12-18T00:40:19;62.38;;;18.15;;
69750;SDS011;57335;52.288;6.056;2022-12-18T00:42:45;60.35;;;17.33;;
69750;SDS011;57335;52.288;6.056;2022-12-18T00:45:11;49.08;;;14.45;;
69750;SDS011;57335;52.288;6.056;2022-12-18T00:47:38;62.42;;;17.67;;
69750;SDS011;57335;52.288;6.056;2022-12-18T00:50:05;50.15;;;17.70;;
69750;SDS011;57335;52.288;6.056;2022-12-18T00:52:32;70.18;;;18.05;;
69750;SDS011;57335;52.288;6.056;2022-12-18T00:54:58;71.10;;;17.38;;
69750;SDS011;57335;52.288;6.056;2022-12-18T00:57:31;61.47;;;18.20;;
69750;SDS011;57335;52.288;6.056;2022-12-18T00:59:57;70.97;;;18.95;;
69750;SDS011;57335;52.288;6.056;2022-12-18T01:02:24;60.70;;;17.77;;
69750;SDS011;57335;52.288;6.056;2022-12-18T01:04:50;66.13;;;16.45;;
69750;SDS011;57335;52.288;6.056;2022-12-18T01:07:17;62.55;;;17.50;;
69750;SDS011;57335;52.288;6.056;2022-12-18T01:09:44;63.40;;;17.40;;
69750;SDS011;57335;52.288;6.056;2022-12-18T01:12:10;49.35;;;14.98;;
69750;SDS011;57335;52.288;6.056;2022-12-18T01:14:36;50.40;;;16.83;;
69750;SDS011;57335;52.288;6.056;2022-12-18T01:17:03;56.80;;;17.95;;
69750;SDS011;57335;52.288;6.056;2022-12-18T01:19:30;58.45;;;15.95;;
69750;SDS011;57335;52.288;6.056;2022-12-18T01:21:56;52.05;;;16.00;;
69750;SDS011;57335;52.288;6.056;2022-12-18T01:24:23;49.85;;;16.67;;
69750;SDS011;57335;52.288;6.056;2022-12-18T01:26:50;52.92;;;15.75;;
69750;SDS011;57335;52.288;6.056;2022-12-18T01:29:16;50.75;;;15.32;;
69750;SDS011;57335;52.288;6.056;2022-12-18T01:31:42;64.55;;;15.93;;
69750;SDS011;57335;52.288;6.056;2022-12-18T01:34:09;51.03;;;15.23;;
69750;SDS011;57335;52.288;6.056;2022-12-18T01:36:37;54.03;;;15.45;;
69750;SDS011;57335;52.288;6.056;2022-12-18T01:39:06;59.80;;;16.70;;
69750;SDS011;57335;52.288;6.056;2022-12-18T01:41:37;53.47;;;14.82;;
69750;SDS011;57335;52.288;6.056;2022-12-18T01:44:46;52.65;;;15.27;;
69750;SDS011;57335;52.288;6.056;2022-12-18T01:47:09;52.47;;;14.95;;
69750;SDS011;57335;52.288;6.056;2022-12-18T01:49:41;48.08;;;14.65;;
69750;SDS011;57335;52.288;6.056;2022-12-18T01:52:08;54.78;;;15.57;;
69750;SDS011;57335;52.288;6.056;2022-12-18T01:54:34;51.03;;;15.80;;
69750;SDS011;57335;52.288;6.056;2022-12-18T01:57:01;44.65;;;14.50;;
69750;SDS011;57335;52.288;6.056;2022-12-18T01:59:27;55.65;;;15.15;;
69750;SDS011;57335;52.288;6.056;2022-12-18T02:01:55;48.53;;;16.33;;
69750;SDS011;57335;52.288;6.056;2022-12-18T02:04:24;54.75;;;16.17;;
69750;SDS011;57335;52.288;6.056;2022-12-18T02:09:40;45.25;;;14.98;;
69750;SDS011;57335;52.288;6.056;2022-12-18T02:12:21;49.20;;;14.43;;
69750;SDS011;57335;52.288;6.056;2022-12-18T02:18:05;49.83;;;15.10;;
69750;SDS011;57335;52.288;6.056;2022-12-18T02:21:00;46.92;;;14.88;;
69750;SDS011;57335;52.288;6.056;2022-12-18T02:23:54;45.88;;;14.40;;
69750;SDS011;57335;52.288;6.056;2022-12-18T02:26:32;44.95;;;14.68;;
69750;SDS011;57335;52.288;6.056;2022-12-18T02:29:05;46.28;;;15.23;;
69750;SDS011;57335;52.288;6.056;2022-12-18T02:31:57;41.28;;;13.35;;
69750;SDS011;57335;52.288;6.056;2022-12-18T02:34:26;44.88;;;14.02;;
69750;SDS011;57335;52.288;6.056;2022-12-18T02:36:56;50.97;;;15.60;;
69750;SDS011;57335;52.288;6.056;2022-12-18T02:39:26;48.55;;;15.98;;
69750;SDS011;57335;52.288;6.056;2022-12-18T02:41:55;40.72;;;14.25;;
69750;SDS011;57335;52.288;6.056;2022-12-18T02:44:22;43.92;;;14.98;;
69750;SDS011;57335;52.288;6.056;2022-12-18T02:46:49;50.50;;;13.90;;
69750;SDS011;57335;52.288;6.056;2022-12-18T02:50:19;45.22;;;14.88;;
69750;SDS011;57335;52.288;6.056;2022-12-18T02:57:52;41.22;;;13.15;;
69750;SDS011;57335;52.288;6.056;2022-12-18T03:00:23;45.25;;;13.65;;
69750;SDS011;57335;52.288;6.056;2022-12-18T03:02:59;49.70;;;14.50;;
69750;SDS011;57335;52.288;6.056;2022-12-18T03:05:31;44.15;;;14.05;;
69750;SDS011;57335;52.288;6.056;2022-12-18T03:08:06;50.83;;;15.25;;
69750;SDS011;57335;52.288;6.056;2022-12-18T03:10:38;41.13;;;16.13;;
69750;SDS011;57335;52.288;6.056;2022-12-18T03:13:25;43.10;;;14.35;;
69750;SDS011;57335;52.288;6.056;2022-12-18T03:15:54;46.92;;;15.90;;
69750;SDS011;57335;52.288;6.056;2022-12-18T03:18:24;44.88;;;15.35;;
69750;SDS011;57335;52.288;6.056;2022-12-18T03:20:56;45.65;;;15.15;;
69750;SDS011;57335;52.288;6.056;2022-12-18T03:23:27;45.53;;;15.30;;
69750;SDS011;57335;52.288;6.056;2022-12-18T03:25:59;45.42;;;14.82;;
69750;SDS011;57335;52.288;6.056;2022-12-18T03:28:33;39.75;;;13.85;;
69750;SDS011;57335;52.288;6.056;2022-12-18T03:31:05;38.97;;;12.32;;
69750;SDS011;57335;52.288;6.056;2022-12-18T03:33:38;41.20;;;14.02;;
69750;SDS011;57335;52.288;6.056;2022-12-18T03:36:18;46.72;;;14.57;;
69750;SDS011;57335;52.288;6.056;2022-12-18T03:38:45;39.30;;;13.45;;
69750;SDS011;57335;52.288;6.056;2022-12-18T03:41:29;39.60;;;13.00;;
69750;SDS011;57335;52.288;6.056;2022-12-18T03:44:08;39.42;;;13.60;;
69750;SDS011;57335;52.288;6.056;2022-12-18T03:46:58;31.02;;;11.18;;
69750;SDS011;57335;52.288;6.056;2022-12-18T03:49:35;39.55;;;13.77;;
69750;SDS011;57335;52.288;6.056;2022-12-18T03:52:03;34.80;;;12.07;;
69750;SDS011;57335;52.288;6.056;2022-12-18T03:54:35;33.67;;;12.20;;
69750;SDS011;57335;52.288;6.056;2022-12-18T03:57:19;33.60;;;12.02;;
69750;SDS011;57335;52.288;6.056;2022-12-18T03:59:53;37.60;;;13.98;;
69750;SDS011;57335;52.288;6.056;2022-12-18T04:02:23;45.88;;;14.38;;
69750;SDS011;57335;52.288;6.056;2022-12-18T04:04:53;38.20;;;13.30;;
69750;SDS011;57335;52.288;6.056;2022-12-18T04:07:23;41.35;;;12.48;;
69750;SDS011;57335;52.288;6.056;2022-12-18T04:09:51;36.38;;;10.82;;
69750;SDS011;57335;52.288;6.056;2022-12-18T04:12:24;30.77;;;11.75;;
69750;SDS011;57335;52.288;6.056;2022-12-18T04:14:51;38.70;;;12.15;;
69750;SDS011;57335;52.288;6.056;2022-12-18T04:17:17;41.75;;;13.52;;
69750;SDS011;57335;52.288;6.056;2022-12-18T04:19:44;36.22;;;13.43;;
69750;SDS011;57335;52.288;6.056;2022-12-18T04:22:10;41.90;;;13.70;;
69750;SDS011;57335;52.288;6.056;2022-12-18T04:27:03;37.47;;;11.63;;
69750;SDS011;57335;52.288;6.056;2022-12-18T04:29:31;30.33;;;11.88;;
69750;SDS011;57335;52.288;6.056;2022-12-18T04:31:57;42.38;;;11.75;;
69750;SDS011;57335;52.288;6.056;2022-12-18T04:34:24;36.17;;;12.10;;
69750;SDS011;57335;52.288;6.056;2022-12-18T04:36:50;35.95;;;12.25;;
69750;SDS011;57335;52.288;6.056;2022-12-18T04:39:17;38.50;;;13.40;;
69750;SDS011;57335;52.288;6.056;2022-12-18T04:41:43;36.28;;;13.02;;
69750;SDS011;57335;52.288;6.056;2022-12-18T04:44:09;35.92;;;12.55;;
69750;SDS011;57335;52.288;6.056;2022-12-18T04:46:36;35.33;;;12.52;;
69750;SDS011;57335;52.288;6.056;2022-12-18T04:49:02;46.28;;;13.43;;
69750;SDS011;57335;52.288;6.056;2022-12-18T04:51:29;30.98;;;12.48;;
69750;SDS011;57335;52.288;6.056;2022-12-18T04:53:55;33.92;;;12.50;;
69750;SDS011;57335;52.288;6.056;2022-12-18T04:56:21;34.40;;;9.98;;
69750;SDS011;57335;52.288;6.056;2022-12-18T04:58:48;31.17;;;11.75;;
69750;SDS011;57335;52.288;6.056;2022-12-18T05:01:14;31.50;;;11.57;;
69750;SDS011;57335;52.288;6.056;2022-12-18T05:03:43;34.47;;;11.23;;
69750;SDS011;57335;52.288;6.056;2022-12-18T05:06:10;39.40;;;11.98;;
69750;SDS011;57335;52.288;6.056;2022-12-18T05:08:37;33.90;;;12.70;;
69750;SDS011;57335;52.288;6.056;2022-12-18T05:11:08;34.60;;;12.80;;
69750;SDS011;57335;52.288;6.056;2022-12-18T05:13:36;29.08;;;11.57;;
69750;SDS011;57335;52.288;6.056;2022-12-18T05:16:04;36.67;;;11.07;;
69750;SDS011;57335;52.288;6.056;2022-12-18T05:18:31;39.83;;;12.07;;
69750;SDS011;57335;52.288;6.056;2022-12-18T05:20:58;28.15;;;10.70;;
69750;SDS011;57335;52.288;6.056;2022-12-18T05:23:24;31.85;;;11.05;;
69750;SDS011;57335;52.288;6.056;2022-12-18T05:25:54;29.15;;;11.10;;
69750;SDS011;57335;52.288;6.056;2022-12-18T05:28:24;34.35;;;11.70;;
69750;SDS011;57335;52.288;6.056;2022-12-18T05:30:53;34.67;;;11.88;;
69750;SDS011;57335;52.288;6.056;2022-12-18T05:33:24;35.47;;;12.90;;
69750;SDS011;57335;52.288;6.056;2022-12-18T05:35:55;29.30;;;10.10;;
69750;SDS011;57335;52.288;6.056;2022-12-18T05:38:23;37.95;;;13.30;;
69750;SDS011;57335;52.288;6.056;2022-12-18T05:40:51;31.02;;;11.52;;
69750;SDS011;57335;52.288;6.056;2022-12-18T05:43:18;27.15;;;11.02;;
69750;SDS011;57335;52.288;6.056;2022-12-18T05:45:47;31.58;;;11.73;;
69750;SDS011;57335;52.288;6.056;2022-12-18T05:48:14;29.55;;;10.73;;
69750;SDS011;57335;52.288;6.056;2022-12-18T05:50:42;34.30;;;12.57;;
69750;SDS011;57335;52.288;6.056;2022-12-18T05:53:09;38.83;;;13.27;;
69750;SDS011;57335;52.288;6.056;2022-12-18T05:55:37;42.42;;;13.02;;
69750;SDS011;57335;52.288;6.056;2022-12-18T05:58:06;30.83;;;11.65;;
69750;SDS011;57335;52.288;6.056;2022-12-18T06:00:34;24.45;;;9.93;;
69750;SDS011;57335;52.288;6.056;2022-12-18T06:03:02;27.58;;;10.27;;
69750;SDS011;57335;52.288;6.056;2022-12-18T06:05:29;31.25;;;10.90;;
69750;SDS011;57335;52.288;6.056;2022-12-18T06:07:55;31.98;;;11.23;;
69750;SDS011;57335;52.288;6.056;2022-12-18T06:10:21;31.25;;;11.07;;
69750;SDS011;57335;52.288;6.056;2022-12-18T06:12:48;27.95;;;10.82;;
69750;SDS011;57335;52.288;6.056;2022-12-18T06:15:14;32.00;;;10.38;;
69750;SDS011;57335;52.288;6.056;2022-12-18T06:17:42;23.05;;;8.52;;
69750;SDS011;57335;52.288;6.056;2022-12-18T06:20:08;34.97;;;11.73;;
69750;SDS011;57335;52.288;6.056;2022-12-18T06:22:35;24.83;;;9.23;;
69750;SDS011;57335;52.288;6.056;2022-12-18T06:25:01;24.85;;;8.50;;
69750;SDS011;57335;52.288;6.056;2022-12-18T06:29:54;27.98;;;10.30;;
69750;SDS011;57335;52.288;6.056;2022-12-18T06:32:21;25.05;;;9.75;;
69750;SDS011;57335;52.288;6.056;2022-12-18T06:34:47;29.75;;;10.85;;
69750;SDS011;57335;52.288;6.056;2022-12-18T06:37:13;29.15;;;11.20;;
69750;SDS011;57335;52.288;6.056;2022-12-18T06:39:40;33.08;;;11.90;;
69750;SDS011;57335;52.288;6.056;2022-12-18T06:42:06;31.42;;;10.82;;
69750;SDS011;57335;52.288;6.056;2022-12-18T06:44:33;30.33;;;11.85;;
69750;SDS011;57335;52.288;6.056;2022-12-18T06:46:59;26.17;;;9.85;;
69750;SDS011;57335;52.288;6.056;2022-12-18T06:49:26;26.83;;;9.57;;
69750;SDS011;57335;52.288;6.056;2022-12-18T06:51:55;28.05;;;10.73;;
69750;SDS011;57335;52.288;6.056;2022-12-18T06:54:22;33.38;;;11.23;;
69750;SDS011;57335;52.288;6.056;2022-12-18T06:56:49;26.15;;;10.30;;
69750;SDS011;57335;52.288;6.056;2022-12-18T06:59:16;26.42;;;10.73;;
69750;SDS011;57335;52.288;6.056;2022-12-18T07:01:42;27.00;;;11.35;;
69750;SDS011;57335;52.288;6.056;2022-12-18T07:04:09;24.73;;;10.27;;
69750;SDS011;57335;52.288;6.056;2022-12-18T07:06:35;24.17;;;9.55;;
69750;SDS011;57335;52.288;6.056;2022-12-18T07:11:28;27.00;;;10.57;;
69750;SDS011;57335;52.288;6.056;2022-12-18T07:13:54;25.85;;;9.38;;
69750;SDS011;57335;52.288;6.056;2022-12-18T07:16:21;27.73;;;10.65;;
69750;SDS011;57335;52.288;6.056;2022-12-18T07:18:51;23.42;;;8.63;;
69750;SDS011;57335;52.288;6.056;2022-12-18T07:21:18;17.58;;;6.45;;
69750;SDS011;57335;52.288;6.056;2022-12-18T07:23:45;25.98;;;8.82;;
69750;SDS011;57335;52.288;6.056;2022-12-18T07:26:12;23.73;;;9.85;;
69750;SDS011;57335;52.288;6.056;2022-12-18T07:28:40;27.52;;;10.43;;
69750;SDS011;57335;52.288;6.056;2022-12-18T07:31:08;27.00;;;10.07;;
69750;SDS011;57335;52.288;6.056;2022-12-18T07:33:37;27.35;;;9.57;;
69750;SDS011;57335;52.288;6.056;2022-12-18T07:36:04;21.25;;;7.88;;
69750;SDS011;57335;52.288;6.056;2022-12-18T07:38:33;27.02;;;9.68;;
69750;SDS011;57335;52.288;6.056;2022-12-18T07:41:01;26.67;;;10.15;;
69750;SDS011;57335;52.288;6.056;2022-12-18T07:43:31;27.33;;;9.15;;
69750;SDS011;57335;52.288;6.056;2022-12-18T07:45:59;24.92;;;10.20;;
69750;SDS011;57335;52.288;6.056;2022-12-18T07:48:25;24.92;;;9.25;;
69750;SDS011;57335;52.288;6.056;2022-12-18T07:50:52;23.50;;;8.88;;
69750;SDS011;57335;52.288;6.056;2022-12-18T07:53:18;23.90;;;7.43;;
69750;SDS011;57335;52.288;6.056;2022-12-18T07:55:45;22.00;;;7.70;;
69750;SDS011;57335;52.288;6.056;2022-12-18T07:58:31;19.75;;;7.85;;
69750;SDS011;57335;52.288;6.056;2022-12-18T08:01:02;17.08;;;6.53;;
69750;SDS011;57335;52.288;6.056;2022-12-18T08:03:33;21.98;;;7.85;;
69750;SDS011;57335;52.288;6.056;2022-12-18T08:06:00;17.13;;;7.00;;
69750;SDS011;57335;52.288;6.056;2022-12-18T08:08:30;20.48;;;8.00;;
69750;SDS011;57335;52.288;6.056;2022-12-18T08:10:57;24.67;;;10.60;;
69750;SDS011;57335;52.288;6.056;2022-12-18T08:13:24;27.75;;;8.68;;
69750;SDS011;57335;52.288;6.056;2022-12-18T08:15:58;19.02;;;8.18;;
69750;SDS011;57335;52.288;6.056;2022-12-18T08:18:29;23.95;;;9.43;;
69750;SDS011;57335;52.288;6.056;2022-12-18T08:20:55;25.77;;;9.68;;
69750;SDS011;57335;52.288;6.056;2022-12-18T08:23:22;23.50;;;8.75;;
69750;SDS011;57335;52.288;6.056;2022-12-18T08:25:52;25.30;;;9.15;;
69750;SDS011;57335;52.288;6.056;2022-12-18T08:28:19;25.48;;;10.30;;
69750;SDS011;57335;52.288;6.056;2022-12-18T08:30:45;28.70;;;9.75;;
69750;SDS011;57335;52.288;6.056;2022-12-18T08:33:11;27.95;;;9.18;;
69750;SDS011;57335;52.288;6.056;2022-12-18T08:35:38;25.95;;;8.30;;
69750;SDS011;57335;52.288;6.056;2022-12-18T08:38:11;26.13;;;8.82;;
69750;SDS011;57335;52.288;6.056;2022-12-18T08:40:37;20.05;;;8.18;;
69750;SDS011;57335;52.288;6.056;2022-12-18T08:43:03;26.40;;;9.80;;
69750;SDS011;57335;52.288;6.056;2022-12-18T08:45:30;21.05;;;8.38;;
69750;SDS011;57335;52.288;6.056;2022-12-18T08:47:56;20.15;;;7.63;;
69750;SDS011;57335;52.288;6.056;2022-12-18T08:50:22;24.95;;;8.75;;
69750;SDS011;57335;52.288;6.056;2022-12-18T08:52:49;19.17;;;6.82;;
69750;SDS011;57335;52.288;6.056;2022-12-18T08:55:15;25.25;;;8.85;;
69750;SDS011;57335;52.288;6.056;2022-12-18T08:57:42;22.58;;;9.15;;
69750;SDS011;57335;52.288;6.056;2022-12-18T09:00:09;20.30;;;7.60;;
69750;SDS011;57335;52.288;6.056;2022-12-18T09:02:36;26.70;;;8.45;;
69750;SDS011;57335;52.288;6.056;2022-12-18T09:05:02;21.70;;;8.18;;
69750;SDS011;57335;52.288;6.056;2022-12-18T09:09:55;22.67;;;7.78;;
69750;SDS011;57335;52.288;6.056;2022-12-18T09:12:21;21.05;;;8.07;;
69750;SDS011;57335;52.288;6.056;2022-12-18T09:14:48;22.30;;;7.90;;
69750;SDS011;57335;52.288;6.056;2022-12-18T09:17:14;24.85;;;8.85;;
69750;SDS011;57335;52.288;6.056;2022-12-18T09:19:41;21.98;;;8.90;;
69750;SDS011;57335;52.288;6.056;2022-12-18T09:22:07;23.73;;;9.15;;
69750;SDS011;57335;52.288;6.056;2022-12-18T09:24:33;21.73;;;7.97;;
69750;SDS011;57335;52.288;6.056;2022-12-18T09:27:00;20.58;;;7.93;;
69750;SDS011;57335;52.288;6.056;2022-12-18T09:29:26;20.88;;;8.68;;
69750;SDS011;57335;52.288;6.056;2022-12-18T09:31:53;19.80;;;7.05;;
69750;SDS011;57335;52.288;6.056;2022-12-18T09:34:19;21.90;;;8.93;;
69750;SDS011;57335;52.288;6.056;2022-12-18T09:36:47;20.42;;;7.90;;
69750;SDS011;57335;52.288;6.056;2022-12-18T09:39:14;19.05;;;8.18;;
69750;SDS011;57335;52.288;6.056;2022-12-18T09:41:48;22.35;;;7.82;;
69750;SDS011;57335;52.288;6.056;2022-12-18T09:44:19;15.48;;;7.28;;
69750;SDS011;57335;52.288;6.056;2022-12-18T09:46:59;19.95;;;7.38;;
69750;SDS011;57335;52.288;6.056;2022-12-18T09:49:31;18.08;;;7.65;;
69750;SDS011;57335;52.288;6.056;2022-12-18T09:52:02;17.98;;;7.25;;
69750;SDS011;57335;52.288;6.056;2022-12-18T09:57:49;19.83;;;7.32;;
69750;SDS011;57335;52.288;6.056;2022-12-18T10:00:20;22.90;;;7.43;;
69750;SDS011;57335;52.288;6.056;2022-12-18T10:02:48;18.90;;;6.97;;
69750;SDS011;57335;52.288;6.056;2022-12-18T10:05:25;19.52;;;7.90;;
69750;SDS011;57335;52.288;6.056;2022-12-18T10:08:05;19.33;;;7.55;;
69750;SDS011;57335;52.288;6.056;2022-12-18T10:16:13;20.30;;;7.35;;
69750;SDS011;57335;52.288;6.056;2022-12-18T10:24:32;18.10;;;6.70;;
69750;SDS011;57335;52.288;6.056;2022-12-18T10:27:17;18.38;;;6.93;;
69750;SDS011;57335;52.288;6.056;2022-12-18T10:29:47;17.83;;;6.20;;
69750;SDS011;57335;52.288;6.056;2022-12-18T10:32:15;17.10;;;6.50;;
69750;SDS011;57335;52.288;6.056;2022-12-18T10:34:44;17.40;;;6.25;;
69750;SDS011;57335;52.288;6.056;2022-12-18T10:37:19;16.40;;;6.78;;
69750;SDS011;57335;52.288;6.056;2022-12-18T10:42:31;16.05;;;5.55;;
69750;SDS011;57335;52.288;6.056;2022-12-18T10:45:12;15.45;;;6.18;;
69750;SDS011;57335;52.288;6.056;2022-12-18T10:47:43;18.02;;;6.53;;
69750;SDS011;57335;52.288;6.056;2022-12-18T10:50:18;14.93;;;5.20;;
69750;SDS011;57335;52.288;6.056;2022-12-18T10:53:17;14.07;;;5.57;;
69750;SDS011;57335;52.288;6.056;2022-12-18T10:55:47;14.43;;;6.28;;
69750;SDS011;57335;52.288;6.056;2022-12-18T10:58:30;15.00;;;5.65;;
69750;SDS011;57335;52.288;6.056;2022-12-18T11:03:32;13.88;;;5.22;;
69750;SDS011;57335;52.288;6.056;2022-12-18T11:06:19;14.32;;;5.30;;
69750;SDS011;57335;52.288;6.056;2022-12-18T11:08:57;13.70;;;5.40;;
69750;SDS011;57335;52.288;6.056;2022-12-18T11:11:25;12.25;;;5.25;;
69750;SDS011;57335;52.288;6.056;2022-12-18T11:18:52;14.48;;;5.10;;
69750;SDS011;57335;52.288;6.056;2022-12-18T11:21:18;12.43;;;4.80;;
69750;SDS011;57335;52.288;6.056;2022-12-18T11:23:51;14.27;;;5.22;;
69750;SDS011;57335;52.288;6.056;2022-12-18T11:26:19;15.57;;;5.78;;
69750;SDS011;57335;52.288;6.056;2022-12-18T11:28:50;14.88;;;4.72;;
69750;SDS011;57335;52.288;6.056;2022-12-18T11:31:33;16.67;;;5.65;;
69750;SDS011;57335;52.288;6.056;2022-12-18T11:36:55;12.15;;;5.00;;
69750;SDS011;57335;52.288;6.056;2022-12-18T11:42:04;11.40;;;4.25;;
69750;SDS011;57335;52.288;6.056;2022-12-18T11:44:48;14.07;;;5.80;;
69750;SDS011;57335;52.288;6.056;2022-12-18T11:47:18;13.55;;;5.75;;
69750;SDS011;57335;52.288;6.056;2022-12-18T11:49:50;13.20;;;4.70;;
69750;SDS011;57335;52.288;6.056;2022-12-18T11:54:52;16.90;;;5.60;;
69750;SDS011;57335;52.288;6.056;2022-12-18T11:57:41;11.98;;;4.93;;
69750;SDS011;57335;52.288;6.056;2022-12-18T12:00:19;12.10;;;4.22;;
69750;SDS011;57335;52.288;6.056;2022-12-18T12:03:07;13.98;;;5.47;;
69750;SDS011;57335;52.288;6.056;2022-12-18T12:11:33;14.32;;;5.32;;
69750;SDS011;57335;52.288;6.056;2022-12-18T12:20:02;12.77;;;5.22;;
69750;SDS011;57335;52.288;6.056;2022-12-18T12:25:37;14.80;;;5.30;;
69750;SDS011;57335;52.288;6.056;2022-12-18T12:31:10;13.38;;;5.75;;
69750;SDS011;57335;52.288;6.056;2022-12-18T12:39:05;13.05;;;5.18;;
69750;SDS011;57335;52.288;6.056;2022-12-18T12:44:04;14.07;;;5.05;;
69750;SDS011;57335;52.288;6.056;2022-12-18T12:46:37;15.05;;;4.90;;
69750;SDS011;57335;52.288;6.056;2022-12-18T12:49:12;13.05;;;4.78;;
69750;SDS011;57335;52.288;6.056;2022-12-18T12:51:43;11.57;;;4.93;;
69750;SDS011;57335;52.288;6.056;2022-12-18T12:54:15;12.45;;;5.38;;
69750;SDS011;57335;52.288;6.056;2022-12-18T12:59:42;13.73;;;5.25;;
69750;SDS011;57335;52.288;6.056;2022-12-18T13:02:21;12.95;;;5.70;;
69750;SDS011;57335;52.288;6.056;2022-12-18T13:07:47;12.48;;;5.20;;
69750;SDS011;57335;52.288;6.056;2022-12-18T13:10:40;9.00;;;3.58;;
69750;SDS011;57335;52.288;6.056;2022-12-18T13:13:11;14.35;;;5.47;;
69750;SDS011;57335;52.288;6.056;2022-12-18T13:16:24;13.95;;;5.53;;
69750;SDS011;57335;52.288;6.056;2022-12-18T13:18:49;12.13;;;5.18;;
69750;SDS011;57335;52.288;6.056;2022-12-18T13:21:21;12.18;;;4.88;;
69750;SDS011;57335;52.288;6.056;2022-12-18T13:23:53;14.48;;;5.65;;
69750;SDS011;57335;52.288;6.056;2022-12-18T13:28:55;15.05;;;5.45;;
69750;SDS011;57335;52.288;6.056;2022-12-18T13:34:21;17.27;;;5.95;;
69750;SDS011;57335;52.288;6.056;2022-12-18T13:36:53;15.60;;;5.40;;
69750;SDS011;57335;52.288;6.056;2022-12-18T13:39:23;15.07;;;5.60;;
69750;SDS011;57335;52.288;6.056;2022-12-18T13:47:24;13.35;;;5.45;;
69750;SDS011;57335;52.288;6.056;2022-12-18T13:49:59;13.00;;;5.05;;
69750;SDS011;57335;52.288;6.056;2022-12-18T13:52:28;13.50;;;4.90;;
69750;SDS011;57335;52.288;6.056;2022-12-18T13:55:06;12.80;;;4.82;;
69750;SDS011;57335;52.288;6.056;2022-12-18T13:57:40;16.20;;;6.45;;
69750;SDS011;57335;52.288;6.056;2022-12-18T14:02:50;14.13;;;5.25;;
69750;SDS011;57335;52.288;6.056;2022-12-18T14:05:30;14.98;;;5.80;;
69750;SDS011;57335;52.288;6.056;2022-12-18T14:08:00;15.30;;;5.60;;
69750;SDS011;57335;52.288;6.056;2022-12-18T14:10:29;15.02;;;5.03;;
69750;SDS011;57335;52.288;6.056;2022-12-18T14:13:19;15.00;;;5.70;;
69750;SDS011;57335;52.288;6.056;2022-12-18T14:15:53;14.60;;;6.05;;
69750;SDS011;57335;52.288;6.056;2022-12-18T14:18:21;14.75;;;5.78;;
69750;SDS011;57335;52.288;6.056;2022-12-18T14:20:51;14.35;;;6.07;;
69750;SDS011;57335;52.288;6.056;2022-12-18T14:23:36;15.93;;;5.95;;
69750;SDS011;57335;52.288;6.056;2022-12-18T14:26:28;17.50;;;5.80;;
69750;SDS011;57335;52.288;6.056;2022-12-18T14:32:03;14.35;;;5.70;;
69750;SDS011;57335;52.288;6.056;2022-12-18T14:34:47;15.27;;;5.82;;
69750;SDS011;57335;52.288;6.056;2022-12-18T14:37:16;17.55;;;6.22;;
69750;SDS011;57335;52.288;6.056;2022-12-18T14:39:57;14.70;;;6.25;;
69750;SDS011;57335;52.288;6.056;2022-12-18T14:42:32;14.80;;;6.35;;
69750;SDS011;57335;52.288;6.056;2022-12-18T14:50:37;14.32;;;5.28;;
69750;SDS011;57335;52.288;6.056;2022-12-18T14:55:47;13.95;;;5.85;;
69750;SDS011;57335;52.288;6.056;2022-12-18T14:58:15;13.85;;;5.78;;
69750;SDS011;57335;52.288;6.056;2022-12-18T15:00:44;15.52;;;5.57;;
69750;SDS011;57335;52.288;6.056;2022-12-18T15:05:43;16.55;;;6.10;;
69750;SDS011;57335;52.288;6.056;2022-12-18T15:13:57;11.82;;;4.60;;
69750;SDS011;57335;52.288;6.056;2022-12-18T15:16:24;13.70;;;5.25;;
69750;SDS011;57335;52.288;6.056;2022-12-18T15:18:51;15.23;;;6.25;;
69750;SDS011;57335;52.288;6.056;2022-12-18T15:21:19;17.33;;;7.30;;
69750;SDS011;57335;52.288;6.056;2022-12-18T15:23:48;14.20;;;5.78;;
69750;SDS011;57335;52.288;6.056;2022-12-18T15:26:17;15.93;;;6.15;;
69750;SDS011;57335;52.288;6.056;2022-12-18T15:28:49;15.95;;;6.18;;
69750;SDS011;57335;52.288;6.056;2022-12-18T15:38:52;14.70;;;5.95;;
69750;SDS011;57335;52.288;6.056;2022-12-18T15:41:31;14.40;;;6.05;;
69750;SDS011;57335;52.288;6.056;2022-12-18T15:44:00;13.85;;;5.20;;
69750;SDS011;57335;52.288;6.056;2022-12-18T15:46:27;15.88;;;6.95;;
69750;SDS011;57335;52.288;6.056;2022-12-18T15:48:54;16.17;;;6.25;;
69750;SDS011;57335;52.288;6.056;2022-12-18T15:54:02;16.33;;;6.32;;
69750;SDS011;57335;52.288;6.056;2022-12-18T15:56:30;15.55;;;5.85;;
69750;SDS011;57335;52.288;6.056;2022-12-18T15:58:57;16.42;;;6.38;;
69750;SDS011;57335;52.288;6.056;2022-12-18T16:01:25;16.20;;;6.15;;
69750;SDS011;57335;52.288;6.056;2022-12-18T16:04:13;14.30;;;5.97;;
69750;SDS011;57335;52.288;6.056;2022-12-18T16:06:40;14.85;;;5.95;;
69750;SDS011;57335;52.288;6.056;2022-12-18T16:09:27;16.65;;;6.57;;
69750;SDS011;57335;52.288;6.056;2022-12-18T16:11:53;15.43;;;5.90;;
69750;SDS011;57335;52.288;6.056;2022-12-18T16:16:50;14.90;;;6.45;;
69750;SDS011;57335;52.288;6.056;2022-12-18T16:19:18;15.98;;;5.90;;
69750;SDS011;57335;52.288;6.056;2022-12-18T16:21:45;16.35;;;6.93;;
69750;SDS011;57335;52.288;6.056;2022-12-18T16:24:16;15.48;;;6.22;;
69750;SDS011;57335;52.288;6.056;2022-12-18T16:26:44;15.07;;;6.75;;
69750;SDS011;57335;52.288;6.056;2022-12-18T16:31:37;14.40;;;5.65;;
69750;SDS011;57335;52.288;6.056;2022-12-18T16:34:12;16.00;;;6.07;;
69750;SDS011;57335;52.288;6.056;2022-12-18T16:36:51;15.73;;;5.95;;
69750;SDS011;57335;52.288;6.056;2022-12-18T16:39:17;13.90;;;6.35;;
69750;SDS011;57335;52.288;6.056;2022-12-18T16:41:44;15.07;;;6.85;;
69750;SDS011;57335;52.288;6.056;2022-12-18T16:44:10;18.80;;;7.55;;
69750;SDS011;57335;52.288;6.056;2022-12-18T16:46:37;17.45;;;6.90;;
69750;SDS011;57335;52.288;6.056;2022-12-18T16:49:04;14.65;;;6.55;;
69750;SDS011;57335;52.288;6.056;2022-12-18T16:53:57;18.35;;;7.28;;
69750;SDS011;57335;52.288;6.056;2022-12-18T16:56:31;18.08;;;6.82;;
69750;SDS011;57335;52.288;6.056;2022-12-18T16:58:59;17.45;;;7.43;;
69750;SDS011;57335;52.288;6.056;2022-12-18T17:01:27;18.35;;;8.07;;
69750;SDS011;57335;52.288;6.056;2022-12-18T17:03:56;19.52;;;7.65;;
69750;SDS011;57335;52.288;6.056;2022-12-18T17:06:27;17.67;;;6.85;;